Aviation Digital Data Service (ADDS)

Output produced by METARs form (1310 UTC 19 January 2019)
found at http://www.aviationweather.gov/metar/data/
 
Forecast for: COR
Text: TAF COR EHVK 190819Z 1910/1922 10007KT 8000 NSC
Forecast period: 1000 to 2200 UTC 19 January 2019
Forecast type: FROM: standard forecast or significant change
Winds: from the E (100 degrees) at 8 MPH (7 knots; 3.6 m/s)
Visibility: 5 miles (8 km)
Ceiling: unknown
Clouds: missing
Weather: no significant weather forecast for this period